sensor_id;sensor_type;location;lat;lon;timestamp;P1;durP1;ratioP1;P2;durP2;ratioP2
38085;SDS011;23896;50.678;10.924;2024-02-15T00:01:34;0.70;;;0.70;;
38085;SDS011;23896;50.678;10.924;2024-02-15T00:04:01;0.60;;;0.60;;
38085;SDS011;23896;50.678;10.924;2024-02-15T00:06:30;0.70;;;0.70;;
38085;SDS011;23896;50.678;10.924;2024-02-15T00:08:57;0.90;;;0.90;;
38085;SDS011;23896;50.678;10.924;2024-02-15T00:11:24;0.55;;;0.55;;
38085;SDS011;23896;50.678;10.924;2024-02-15T00:13:50;0.50;;;0.50;;
38085;SDS011;23896;50.678;10.924;2024-02-15T00:16:16;0.50;;;0.50;;
38085;SDS011;23896;50.678;10.924;2024-02-15T00:18:43;0.70;;;0.70;;
38085;SDS011;23896;50.678;10.924;2024-02-15T00:21:10;0.60;;;0.60;;
38085;SDS011;23896;50.678;10.924;2024-02-15T00:23:36;0.60;;;0.60;;
38085;SDS011;23896;50.678;10.924;2024-02-15T00:26:07;0.57;;;0.57;;
38085;SDS011;23896;50.678;10.924;2024-02-15T00:28:35;0.60;;;0.60;;
38085;SDS011;23896;50.678;10.924;2024-02-15T00:31:01;0.60;;;0.60;;
38085;SDS011;23896;50.678;10.924;2024-02-15T00:33:28;0.60;;;0.60;;
38085;SDS011;23896;50.678;10.924;2024-02-15T00:35:59;0.52;;;0.52;;
38085;SDS011;23896;50.678;10.924;2024-02-15T00:38:26;0.50;;;0.50;;
38085;SDS011;23896;50.678;10.924;2024-02-15T00:40:52;0.70;;;0.70;;
38085;SDS011;23896;50.678;10.924;2024-02-15T00:43:19;0.50;;;0.50;;
38085;SDS011;23896;50.678;10.924;2024-02-15T00:45:45;0.50;;;0.50;;
38085;SDS011;23896;50.678;10.924;2024-02-15T00:48:12;0.50;;;0.50;;
38085;SDS011;23896;50.678;10.924;2024-02-15T00:50:38;0.40;;;0.40;;
38085;SDS011;23896;50.678;10.924;2024-02-15T00:53:04;0.50;;;0.50;;
38085;SDS011;23896;50.678;10.924;2024-02-15T00:55:31;0.50;;;0.50;;
38085;SDS011;23896;50.678;10.924;2024-02-15T00:57:57;0.50;;;0.50;;
38085;SDS011;23896;50.678;10.924;2024-02-15T01:00:23;0.50;;;0.50;;
38085;SDS011;23896;50.678;10.924;2024-02-15T01:02:51;0.40;;;0.40;;
38085;SDS011;23896;50.678;10.924;2024-02-15T01:05:18;0.50;;;0.50;;
38085;SDS011;23896;50.678;10.924;2024-02-15T01:07:44;0.50;;;0.50;;
38085;SDS011;23896;50.678;10.924;2024-02-15T01:10:13;0.40;;;0.40;;
38085;SDS011;23896;50.678;10.924;2024-02-15T01:12:41;0.47;;;0.47;;
38085;SDS011;23896;50.678;10.924;2024-02-15T01:15:10;0.47;;;0.47;;
38085;SDS011;23896;50.678;10.924;2024-02-15T01:17:42;0.40;;;0.40;;
38085;SDS011;23896;50.678;10.924;2024-02-15T01:20:13;0.52;;;0.52;;
38085;SDS011;23896;50.678;10.924;2024-02-15T01:22:40;0.50;;;0.50;;
38085;SDS011;23896;50.678;10.924;2024-02-15T01:25:09;0.40;;;0.40;;
38085;SDS011;23896;50.678;10.924;2024-02-15T01:27:36;0.40;;;0.40;;
38085;SDS011;23896;50.678;10.924;2024-02-15T01:30:03;1.15;;;0.50;;
38085;SDS011;23896;50.678;10.924;2024-02-15T01:32:29;0.52;;;0.52;;
38085;SDS011;23896;50.678;10.924;2024-02-15T01:34:56;0.63;;;0.63;;
38085;SDS011;23896;50.678;10.924;2024-02-15T01:37:22;0.50;;;0.50;;
38085;SDS011;23896;50.678;10.924;2024-02-15T01:39:48;0.60;;;0.60;;
38085;SDS011;23896;50.678;10.924;2024-02-15T01:42:14;0.50;;;0.50;;
38085;SDS011;23896;50.678;10.924;2024-02-15T01:44:40;0.50;;;0.50;;
38085;SDS011;23896;50.678;10.924;2024-02-15T01:47:09;0.60;;;0.60;;
38085;SDS011;23896;50.678;10.924;2024-02-15T01:49:36;0.50;;;0.50;;
38085;SDS011;23896;50.678;10.924;2024-02-15T01:52:02;0.50;;;0.50;;
38085;SDS011;23896;50.678;10.924;2024-02-15T01:54:34;1.50;;;0.60;;
38085;SDS011;23896;50.678;10.924;2024-02-15T01:57:01;0.50;;;0.50;;
38085;SDS011;23896;50.678;10.924;2024-02-15T01:59:28;0.70;;;0.70;;
38085;SDS011;23896;50.678;10.924;2024-02-15T02:01:54;0.75;;;0.70;;
38085;SDS011;23896;50.678;10.924;2024-02-15T02:04:20;0.68;;;0.68;;
38085;SDS011;23896;50.678;10.924;2024-02-15T02:09:51;0.60;;;0.60;;
38085;SDS011;23896;50.678;10.924;2024-02-15T02:12:17;0.50;;;0.50;;
38085;SDS011;23896;50.678;10.924;2024-02-15T02:14:44;0.60;;;0.60;;
38085;SDS011;23896;50.678;10.924;2024-02-15T02:17:10;0.60;;;0.60;;
38085;SDS011;23896;50.678;10.924;2024-02-15T02:25:58;1.15;;;0.70;;
38085;SDS011;23896;50.678;10.924;2024-02-15T02:28:24;0.63;;;0.63;;
38085;SDS011;23896;50.678;10.924;2024-02-15T02:30:51;0.60;;;0.60;;
38085;SDS011;23896;50.678;10.924;2024-02-15T02:33:17;0.70;;;0.70;;
38085;SDS011;23896;50.678;10.924;2024-02-15T02:35:44;0.60;;;0.60;;
38085;SDS011;23896;50.678;10.924;2024-02-15T02:38:10;0.80;;;0.80;;
38085;SDS011;23896;50.678;10.924;2024-02-15T02:40:36;0.60;;;0.60;;
38085;SDS011;23896;50.678;10.924;2024-02-15T02:43:02;1.10;;;0.60;;
38085;SDS011;23896;50.678;10.924;2024-02-15T02:45:29;0.90;;;0.90;;
38085;SDS011;23896;50.678;10.924;2024-02-15T02:47:55;0.60;;;0.60;;
38085;SDS011;23896;50.678;10.924;2024-02-15T02:50:21;0.70;;;0.70;;
38085;SDS011;23896;50.678;10.924;2024-02-15T02:52:48;1.75;;;1.02;;
38085;SDS011;23896;50.678;10.924;2024-02-15T02:55:17;0.80;;;0.80;;
38085;SDS011;23896;50.678;10.924;2024-02-15T02:57:43;1.20;;;1.20;;
38085;SDS011;23896;50.678;10.924;2024-02-15T03:03:13;1.88;;;1.42;;
38085;SDS011;23896;50.678;10.924;2024-02-15T03:05:39;1.52;;;1.42;;
38085;SDS011;23896;50.678;10.924;2024-02-15T03:08:07;1.58;;;1.48;;
38085;SDS011;23896;50.678;10.924;2024-02-15T03:10:34;2.25;;;1.50;;
38085;SDS011;23896;50.678;10.924;2024-02-15T03:13:00;1.38;;;1.27;;
38085;SDS011;23896;50.678;10.924;2024-02-15T03:15:27;1.92;;;1.40;;
38085;SDS011;23896;50.678;10.924;2024-02-15T03:17:53;1.60;;;1.50;;
38085;SDS011;23896;50.678;10.924;2024-02-15T03:20:20;1.40;;;1.30;;
38085;SDS011;23896;50.678;10.924;2024-02-15T03:22:50;1.77;;;1.42;;
38085;SDS011;23896;50.678;10.924;2024-02-15T03:25:18;1.52;;;1.42;;
38085;SDS011;23896;50.678;10.924;2024-02-15T03:27:47;2.63;;;1.70;;
38085;SDS011;23896;50.678;10.924;2024-02-15T03:30:13;1.42;;;1.33;;
38085;SDS011;23896;50.678;10.924;2024-02-15T03:32:40;1.50;;;1.40;;
38085;SDS011;23896;50.678;10.924;2024-02-15T03:35:06;2.75;;;1.85;;
38085;SDS011;23896;50.678;10.924;2024-02-15T03:37:32;1.60;;;1.50;;
38085;SDS011;23896;50.678;10.924;2024-02-15T03:40:05;2.15;;;2.05;;
38085;SDS011;23896;50.678;10.924;2024-02-15T03:42:31;2.00;;;1.90;;
38085;SDS011;23896;50.678;10.924;2024-02-15T03:44:57;1.80;;;1.70;;
38085;SDS011;23896;50.678;10.924;2024-02-15T03:47:23;1.77;;;1.67;;
38085;SDS011;23896;50.678;10.924;2024-02-15T03:49:50;1.75;;;1.65;;
38085;SDS011;23896;50.678;10.924;2024-02-15T03:52:16;2.25;;;1.75;;
38085;SDS011;23896;50.678;10.924;2024-02-15T03:54:43;1.90;;;1.80;;
38085;SDS011;23896;50.678;10.924;2024-02-15T03:57:09;2.90;;;1.77;;
38085;SDS011;23896;50.678;10.924;2024-02-15T03:59:37;2.75;;;2.13;;
38085;SDS011;23896;50.678;10.924;2024-02-15T04:02:04;2.67;;;2.42;;
38085;SDS011;23896;50.678;10.924;2024-02-15T04:04:36;2.30;;;2.17;;
38085;SDS011;23896;50.678;10.924;2024-02-15T04:07:07;1.65;;;1.55;;
38085;SDS011;23896;50.678;10.924;2024-02-15T04:09:34;2.50;;;2.00;;
38085;SDS011;23896;50.678;10.924;2024-02-15T04:12:01;2.70;;;2.00;;
38085;SDS011;23896;50.678;10.924;2024-02-15T04:14:27;2.35;;;2.15;;
38085;SDS011;23896;50.678;10.924;2024-02-15T04:16:53;4.63;;;2.20;;
38085;SDS011;23896;50.678;10.924;2024-02-15T04:19:19;1.98;;;1.77;;
38085;SDS011;23896;50.678;10.924;2024-02-15T04:21:47;2.00;;;1.90;;
38085;SDS011;23896;50.678;10.924;2024-02-15T04:24:16;1.70;;;1.60;;
38085;SDS011;23896;50.678;10.924;2024-02-15T04:26:43;1.88;;;1.77;;
38085;SDS011;23896;50.678;10.924;2024-02-15T04:29:12;1.80;;;1.70;;
38085;SDS011;23896;50.678;10.924;2024-02-15T04:31:39;2.13;;;1.90;;
38085;SDS011;23896;50.678;10.924;2024-02-15T04:34:08;3.70;;;1.90;;
38085;SDS011;23896;50.678;10.924;2024-02-15T04:36:36;3.55;;;2.45;;
38085;SDS011;23896;50.678;10.924;2024-02-15T04:39:02;2.28;;;2.00;;
38085;SDS011;23896;50.678;10.924;2024-02-15T04:41:29;2.80;;;2.13;;
38085;SDS011;23896;50.678;10.924;2024-02-15T04:43:55;3.85;;;2.58;;
38085;SDS011;23896;50.678;10.924;2024-02-15T04:46:22;4.53;;;2.50;;
38085;SDS011;23896;50.678;10.924;2024-02-15T04:48:49;2.47;;;2.28;;
38085;SDS011;23896;50.678;10.924;2024-02-15T04:51:16;2.90;;;2.45;;
38085;SDS011;23896;50.678;10.924;2024-02-15T04:53:42;3.17;;;2.65;;
38085;SDS011;23896;50.678;10.924;2024-02-15T04:56:12;2.92;;;2.53;;
38085;SDS011;23896;50.678;10.924;2024-02-15T04:58:39;2.60;;;2.40;;
38085;SDS011;23896;50.678;10.924;2024-02-15T05:01:12;3.17;;;2.33;;
38085;SDS011;23896;50.678;10.924;2024-02-15T05:03:39;3.53;;;2.75;;
38085;SDS011;23896;50.678;10.924;2024-02-15T05:06:06;3.17;;;2.92;;
38085;SDS011;23896;50.678;10.924;2024-02-15T05:08:34;3.70;;;2.80;;
38085;SDS011;23896;50.678;10.924;2024-02-15T05:11:03;2.55;;;2.35;;
38085;SDS011;23896;50.678;10.924;2024-02-15T05:19:38;2.37;;;2.17;;
38085;SDS011;23896;50.678;10.924;2024-02-15T05:22:04;2.28;;;2.00;;
38085;SDS011;23896;50.678;10.924;2024-02-15T05:24:31;1.80;;;1.70;;
38085;SDS011;23896;50.678;10.924;2024-02-15T05:26:57;2.22;;;1.83;;
38085;SDS011;23896;50.678;10.924;2024-02-15T05:35:31;3.37;;;1.90;;
38085;SDS011;23896;50.678;10.924;2024-02-15T05:38:06;1.90;;;1.80;;
38085;SDS011;23896;50.678;10.924;2024-02-15T05:40:33;3.33;;;3.03;;
38085;SDS011;23896;50.678;10.924;2024-02-15T05:46:04;2.17;;;1.65;;
38085;SDS011;23896;50.678;10.924;2024-02-15T05:48:49;1.90;;;1.40;;
38085;SDS011;23896;50.678;10.924;2024-02-15T05:51:16;2.45;;;1.58;;
38085;SDS011;23896;50.678;10.924;2024-02-15T05:53:43;2.55;;;1.80;;
38085;SDS011;23896;50.678;10.924;2024-02-15T05:56:10;1.95;;;1.85;;
38085;SDS011;23896;50.678;10.924;2024-02-15T05:58:36;3.53;;;2.92;;
38085;SDS011;23896;50.678;10.924;2024-02-15T06:16:41;3.40;;;3.03;;
38085;SDS011;23896;50.678;10.924;2024-02-15T06:19:26;2.40;;;2.20;;
38085;SDS011;23896;50.678;10.924;2024-02-15T06:21:52;2.95;;;2.75;;
38085;SDS011;23896;50.678;10.924;2024-02-15T06:24:19;3.22;;;3.03;;
38085;SDS011;23896;50.678;10.924;2024-02-15T06:26:45;3.65;;;3.25;;
38085;SDS011;23896;50.678;10.924;2024-02-15T06:29:14;5.18;;;3.80;;
38085;SDS011;23896;50.678;10.924;2024-02-15T06:31:57;6.72;;;3.38;;
38085;SDS011;23896;50.678;10.924;2024-02-15T06:34:36;2.53;;;2.33;;
38085;SDS011;23896;50.678;10.924;2024-02-15T06:37:34;2.60;;;2.40;;
38085;SDS011;23896;50.678;10.924;2024-02-15T06:40:12;2.65;;;2.22;;
38085;SDS011;23896;50.678;10.924;2024-02-15T06:48:51;3.30;;;3.00;;
38085;SDS011;23896;50.678;10.924;2024-02-15T06:51:27;4.22;;;3.10;;
38085;SDS011;23896;50.678;10.924;2024-02-15T06:54:06;4.35;;;3.60;;
38085;SDS011;23896;50.678;10.924;2024-02-15T07:08:45;3.67;;;3.38;;
38085;SDS011;23896;50.678;10.924;2024-02-15T07:11:12;4.22;;;3.83;;
38085;SDS011;23896;50.678;10.924;2024-02-15T07:13:38;4.40;;;3.90;;
38085;SDS011;23896;50.678;10.924;2024-02-15T07:22:03;3.22;;;2.53;;
38085;SDS011;23896;50.678;10.924;2024-02-15T07:24:30;3.50;;;2.65;;
38085;SDS011;23896;50.678;10.924;2024-02-15T07:26:57;2.92;;;2.47;;
38085;SDS011;23896;50.678;10.924;2024-02-15T07:32:06;3.50;;;2.30;;
38085;SDS011;23896;50.678;10.924;2024-02-15T07:34:38;2.47;;;2.28;;
38085;SDS011;23896;50.678;10.924;2024-02-15T07:40:05;2.35;;;1.80;;
38085;SDS011;23896;50.678;10.924;2024-02-15T07:42:51;2.10;;;2.00;;
38085;SDS011;23896;50.678;10.924;2024-02-15T07:45:47;2.92;;;2.42;;
38085;SDS011;23896;50.678;10.924;2024-02-15T07:48:32;2.40;;;2.20;;
38085;SDS011;23896;50.678;10.924;2024-02-15T07:58:29;2.50;;;2.20;;
38085;SDS011;23896;50.678;10.924;2024-02-15T08:00:59;3.55;;;2.22;;
38085;SDS011;23896;50.678;10.924;2024-02-15T08:03:25;2.78;;;2.22;;
38085;SDS011;23896;50.678;10.924;2024-02-15T08:05:54;2.03;;;1.92;;
38085;SDS011;23896;50.678;10.924;2024-02-15T08:08:23;2.75;;;2.55;;
38085;SDS011;23896;50.678;10.924;2024-02-15T08:10:49;2.65;;;2.33;;
38085;SDS011;23896;50.678;10.924;2024-02-15T08:13:17;2.58;;;2.35;;
38085;SDS011;23896;50.678;10.924;2024-02-15T08:15:47;3.17;;;2.22;;
38085;SDS011;23896;50.678;10.924;2024-02-15T08:18:17;3.50;;;3.17;;
38085;SDS011;23896;50.678;10.924;2024-02-15T08:20:44;5.38;;;2.30;;
38085;SDS011;23896;50.678;10.924;2024-02-15T08:23:10;3.35;;;2.95;;
38085;SDS011;23896;50.678;10.924;2024-02-15T08:25:38;3.60;;;2.35;;
38085;SDS011;23896;50.678;10.924;2024-02-15T08:28:10;3.40;;;3.00;;
38085;SDS011;23896;50.678;10.924;2024-02-15T08:30:40;3.63;;;3.33;;
38085;SDS011;23896;50.678;10.924;2024-02-15T08:33:07;3.10;;;2.90;;
38085;SDS011;23896;50.678;10.924;2024-02-15T08:35:37;3.67;;;2.85;;
38085;SDS011;23896;50.678;10.924;2024-02-15T08:38:06;2.90;;;2.70;;
38085;SDS011;23896;50.678;10.924;2024-02-15T08:40:33;4.30;;;3.78;;
38085;SDS011;23896;50.678;10.924;2024-02-15T08:43:00;2.75;;;2.55;;
38085;SDS011;23896;50.678;10.924;2024-02-15T08:45:26;3.10;;;2.90;;
38085;SDS011;23896;50.678;10.924;2024-02-15T08:47:53;3.40;;;3.05;;
38085;SDS011;23896;50.678;10.924;2024-02-15T08:50:20;3.78;;;3.38;;
38085;SDS011;23896;50.678;10.924;2024-02-15T08:52:48;5.50;;;3.20;;
38085;SDS011;23896;50.678;10.924;2024-02-15T08:55:17;4.30;;;3.92;;
38085;SDS011;23896;50.678;10.924;2024-02-15T08:57:45;3.80;;;3.47;;
38085;SDS011;23896;50.678;10.924;2024-02-15T09:00:12;4.72;;;3.78;;
38085;SDS011;23896;50.678;10.924;2024-02-15T09:02:39;6.65;;;5.10;;
38085;SDS011;23896;50.678;10.924;2024-02-15T09:05:11;4.47;;;3.50;;
38085;SDS011;23896;50.678;10.924;2024-02-15T09:07:42;4.40;;;4.03;;
38085;SDS011;23896;50.678;10.924;2024-02-15T09:10:09;4.13;;;3.55;;
38085;SDS011;23896;50.678;10.924;2024-02-15T09:12:39;3.58;;;3.08;;
38085;SDS011;23896;50.678;10.924;2024-02-15T09:15:06;3.65;;;3.17;;
38085;SDS011;23896;50.678;10.924;2024-02-15T09:17:34;5.85;;;2.85;;
38085;SDS011;23896;50.678;10.924;2024-02-15T09:20:06;3.10;;;2.30;;
38085;SDS011;23896;50.678;10.924;2024-02-15T09:22:33;3.90;;;2.15;;
38085;SDS011;23896;50.678;10.924;2024-02-15T09:25:01;3.22;;;2.33;;
38085;SDS011;23896;50.678;10.924;2024-02-15T09:27:28;3.30;;;2.50;;
38085;SDS011;23896;50.678;10.924;2024-02-15T09:29:54;2.70;;;2.50;;
38085;SDS011;23896;50.678;10.924;2024-02-15T09:32:20;2.40;;;2.20;;
38085;SDS011;23896;50.678;10.924;2024-02-15T09:34:47;2.13;;;1.92;;
38085;SDS011;23896;50.678;10.924;2024-02-15T09:37:15;1.95;;;1.83;;
38085;SDS011;23896;50.678;10.924;2024-02-15T09:39:44;3.58;;;1.80;;
38085;SDS011;23896;50.678;10.924;2024-02-15T09:42:12;2.05;;;1.92;;
38085;SDS011;23896;50.678;10.924;2024-02-15T09:44:39;2.22;;;1.95;;
38085;SDS011;23896;50.678;10.924;2024-02-15T09:47:06;3.78;;;2.63;;
38085;SDS011;23896;50.678;10.924;2024-02-15T09:49:36;2.10;;;1.90;;
38085;SDS011;23896;50.678;10.924;2024-02-15T09:52:06;2.40;;;2.20;;
38085;SDS011;23896;50.678;10.924;2024-02-15T09:54:42;4.25;;;3.08;;
38085;SDS011;23896;50.678;10.924;2024-02-15T09:57:09;4.05;;;2.20;;
38085;SDS011;23896;50.678;10.924;2024-02-15T09:59:38;2.20;;;2.10;;
38085;SDS011;23896;50.678;10.924;2024-02-15T10:02:05;3.08;;;2.78;;
38085;SDS011;23896;50.678;10.924;2024-02-15T10:04:39;3.20;;;2.65;;
38085;SDS011;23896;50.678;10.924;2024-02-15T10:07:14;3.50;;;3.20;;
38085;SDS011;23896;50.678;10.924;2024-02-15T10:09:44;4.30;;;3.53;;
38085;SDS011;23896;50.678;10.924;2024-02-15T10:12:11;3.95;;;3.38;;
38085;SDS011;23896;50.678;10.924;2024-02-15T10:14:37;3.78;;;3.47;;
38085;SDS011;23896;50.678;10.924;2024-02-15T10:17:07;3.72;;;3.20;;
38085;SDS011;23896;50.678;10.924;2024-02-15T10:19:35;3.90;;;3.60;;
38085;SDS011;23896;50.678;10.924;2024-02-15T10:22:08;2.92;;;2.70;;
38085;SDS011;23896;50.678;10.924;2024-02-15T10:24:41;3.65;;;3.22;;
38085;SDS011;23896;50.678;10.924;2024-02-15T10:27:10;3.30;;;3.00;;
38085;SDS011;23896;50.678;10.924;2024-02-15T10:29:37;2.90;;;2.70;;
38085;SDS011;23896;50.678;10.924;2024-02-15T10:32:07;4.07;;;3.78;;
38085;SDS011;23896;50.678;10.924;2024-02-15T10:34:43;4.03;;;3.53;;
38085;SDS011;23896;50.678;10.924;2024-02-15T10:37:13;3.00;;;2.80;;
38085;SDS011;23896;50.678;10.924;2024-02-15T10:39:43;3.65;;;3.17;;
38085;SDS011;23896;50.678;10.924;2024-02-15T10:42:14;4.93;;;3.67;;
38085;SDS011;23896;50.678;10.924;2024-02-15T10:44:45;3.30;;;2.97;;
38085;SDS011;23896;50.678;10.924;2024-02-15T10:47:13;6.40;;;3.65;;
38085;SDS011;23896;50.678;10.924;2024-02-15T10:49:40;4.55;;;4.25;;
38085;SDS011;23896;50.678;10.924;2024-02-15T10:52:06;5.40;;;4.22;;
38085;SDS011;23896;50.678;10.924;2024-02-15T10:54:40;4.25;;;3.95;;
38085;SDS011;23896;50.678;10.924;2024-02-15T10:57:09;4.65;;;3.88;;
38085;SDS011;23896;50.678;10.924;2024-02-15T10:59:37;3.95;;;3.65;;
38085;SDS011;23896;50.678;10.924;2024-02-15T11:02:23;4.00;;;3.60;;
38085;SDS011;23896;50.678;10.924;2024-02-15T11:04:59;4.43;;;3.90;;
38085;SDS011;23896;50.678;10.924;2024-02-15T11:09:57;3.95;;;3.33;;
38085;SDS011;23896;50.678;10.924;2024-02-15T11:12:28;3.45;;;3.15;;
38085;SDS011;23896;50.678;10.924;2024-02-15T11:15:00;3.60;;;3.30;;
38085;SDS011;23896;50.678;10.924;2024-02-15T11:23:12;3.35;;;3.15;;
38085;SDS011;23896;50.678;10.924;2024-02-15T11:25:50;5.38;;;3.88;;
38085;SDS011;23896;50.678;10.924;2024-02-15T11:31:08;3.25;;;2.97;;
38085;SDS011;23896;50.678;10.924;2024-02-15T11:33:36;3.28;;;3.08;;
38085;SDS011;23896;50.678;10.924;2024-02-15T11:36:09;2.90;;;2.67;;
38085;SDS011;23896;50.678;10.924;2024-02-15T11:38:42;3.50;;;2.88;;
38085;SDS011;23896;50.678;10.924;2024-02-15T11:41:10;2.60;;;2.40;;
38085;SDS011;23896;50.678;10.924;2024-02-15T11:43:47;2.80;;;2.50;;
38085;SDS011;23896;50.678;10.924;2024-02-15T11:46:21;2.50;;;2.38;;
38085;SDS011;23896;50.678;10.924;2024-02-15T11:48:51;2.67;;;2.45;;
38085;SDS011;23896;50.678;10.924;2024-02-15T11:51:24;5.05;;;2.65;;
38085;SDS011;23896;50.678;10.924;2024-02-15T11:53:59;2.35;;;2.15;;
38085;SDS011;23896;50.678;10.924;2024-02-15T11:56:26;2.05;;;1.95;;
38085;SDS011;23896;50.678;10.924;2024-02-15T11:59:01;2.50;;;2.30;;
38085;SDS011;23896;50.678;10.924;2024-02-15T12:01:32;3.55;;;2.53;;
38085;SDS011;23896;50.678;10.924;2024-02-15T12:04:14;2.80;;;2.60;;
38085;SDS011;23896;50.678;10.924;2024-02-15T12:06:57;3.58;;;2.70;;
38085;SDS011;23896;50.678;10.924;2024-02-15T12:09:37;3.53;;;2.35;;
38085;SDS011;23896;50.678;10.924;2024-02-15T12:12:16;5.32;;;2.95;;
38085;SDS011;23896;50.678;10.924;2024-02-15T12:14:59;4.10;;;2.83;;
38085;SDS011;23896;50.678;10.924;2024-02-15T12:17:41;5.13;;;2.83;;
38085;SDS011;23896;50.678;10.924;2024-02-15T12:20:28;3.78;;;2.60;;
38085;SDS011;23896;50.678;10.924;2024-02-15T12:23:01;4.28;;;2.72;;
38085;SDS011;23896;50.678;10.924;2024-02-15T12:25:28;4.43;;;2.25;;
38085;SDS011;23896;50.678;10.924;2024-02-15T12:27:59;3.53;;;2.47;;
38085;SDS011;23896;50.678;10.924;2024-02-15T12:30:34;5.13;;;2.53;;
38085;SDS011;23896;50.678;10.924;2024-02-15T12:33:09;6.50;;;2.53;;
38085;SDS011;23896;50.678;10.924;2024-02-15T12:35:38;4.00;;;2.90;;
38085;SDS011;23896;50.678;10.924;2024-02-15T12:38:11;3.22;;;2.17;;
38085;SDS011;23896;50.678;10.924;2024-02-15T12:40:42;3.58;;;1.95;;
38085;SDS011;23896;50.678;10.924;2024-02-15T12:43:12;5.50;;;2.42;;
38085;SDS011;23896;50.678;10.924;2024-02-15T12:45:49;6.22;;;3.42;;
38085;SDS011;23896;50.678;10.924;2024-02-15T12:48:18;4.15;;;2.05;;
38085;SDS011;23896;50.678;10.924;2024-02-15T12:50:45;4.18;;;2.40;;
38085;SDS011;23896;50.678;10.924;2024-02-15T12:53:12;5.20;;;2.13;;
38085;SDS011;23896;50.678;10.924;2024-02-15T12:55:42;4.72;;;1.98;;
38085;SDS011;23896;50.678;10.924;2024-02-15T12:58:12;4.57;;;1.67;;
38085;SDS011;23896;50.678;10.924;2024-02-15T13:00:41;4.75;;;1.98;;
38085;SDS011;23896;50.678;10.924;2024-02-15T13:03:09;3.42;;;1.80;;
38085;SDS011;23896;50.678;10.924;2024-02-15T13:05:45;5.70;;;2.85;;
38085;SDS011;23896;50.678;10.924;2024-02-15T13:08:13;2.08;;;1.63;;
38085;SDS011;23896;50.678;10.924;2024-02-15T13:10:43;5.70;;;1.90;;
38085;SDS011;23896;50.678;10.924;2024-02-15T13:13:14;4.03;;;1.50;;
38085;SDS011;23896;50.678;10.924;2024-02-15T13:15:53;5.13;;;1.73;;
38085;SDS011;23896;50.678;10.924;2024-02-15T13:18:21;4.25;;;1.75;;
38085;SDS011;23896;50.678;10.924;2024-02-15T13:20:51;4.00;;;2.17;;
38085;SDS011;23896;50.678;10.924;2024-02-15T13:23:21;4.43;;;1.77;;
38085;SDS011;23896;50.678;10.924;2024-02-15T13:25:51;4.72;;;1.90;;
38085;SDS011;23896;50.678;10.924;2024-02-15T13:28:19;4.28;;;1.98;;
38085;SDS011;23896;50.678;10.924;2024-02-15T13:30:46;7.30;;;1.73;;
38085;SDS011;23896;50.678;10.924;2024-02-15T13:33:15;1.85;;;1.67;;
38085;SDS011;23896;50.678;10.924;2024-02-15T13:35:42;7.35;;;1.80;;
38085;SDS011;23896;50.678;10.924;2024-02-15T13:38:13;2.40;;;1.40;;
38085;SDS011;23896;50.678;10.924;2024-02-15T13:40:40;3.88;;;1.70;;
38085;SDS011;23896;50.678;10.924;2024-02-15T13:43:08;4.65;;;1.75;;
38085;SDS011;23896;50.678;10.924;2024-02-15T13:45:40;2.33;;;1.45;;
38085;SDS011;23896;50.678;10.924;2024-02-15T13:48:08;4.10;;;1.63;;
38085;SDS011;23896;50.678;10.924;2024-02-15T13:50:36;5.55;;;1.90;;
38085;SDS011;23896;50.678;10.924;2024-02-15T13:53:06;3.95;;;1.75;;
38085;SDS011;23896;50.678;10.924;2024-02-15T13:55:35;5.65;;;2.05;;
38085;SDS011;23896;50.678;10.924;2024-02-15T13:58:03;4.05;;;1.73;;
38085;SDS011;23896;50.678;10.924;2024-02-15T14:00:35;4.57;;;1.55;;
38085;SDS011;23896;50.678;10.924;2024-02-15T14:03:15;4.07;;;1.52;;
38085;SDS011;23896;50.678;10.924;2024-02-15T14:05:44;1.92;;;1.58;;
38085;SDS011;23896;50.678;10.924;2024-02-15T14:08:14;2.55;;;1.73;;
38085;SDS011;23896;50.678;10.924;2024-02-15T14:10:41;3.55;;;1.60;;
38085;SDS011;23896;50.678;10.924;2024-02-15T14:13:08;2.63;;;1.77;;
38085;SDS011;23896;50.678;10.924;2024-02-15T14:15:37;3.03;;;2.13;;
38085;SDS011;23896;50.678;10.924;2024-02-15T14:18:10;4.03;;;2.08;;
38085;SDS011;23896;50.678;10.924;2024-02-15T14:20:54;3.92;;;2.10;;
38085;SDS011;23896;50.678;10.924;2024-02-15T14:23:21;5.75;;;2.00;;
38085;SDS011;23896;50.678;10.924;2024-02-15T14:25:51;2.28;;;1.63;;
38085;SDS011;23896;50.678;10.924;2024-02-15T14:28:21;9.77;;;1.98;;
38085;SDS011;23896;50.678;10.924;2024-02-15T14:30:48;6.13;;;2.38;;
38085;SDS011;23896;50.678;10.924;2024-02-15T14:33:27;5.10;;;2.08;;
38085;SDS011;23896;50.678;10.924;2024-02-15T14:35:55;4.10;;;2.25;;
38085;SDS011;23896;50.678;10.924;2024-02-15T14:38:22;5.97;;;1.85;;
38085;SDS011;23896;50.678;10.924;2024-02-15T14:40:50;2.95;;;1.75;;
38085;SDS011;23896;50.678;10.924;2024-02-15T14:43:22;2.30;;;1.65;;
38085;SDS011;23896;50.678;10.924;2024-02-15T14:45:51;3.22;;;1.45;;
38085;SDS011;23896;50.678;10.924;2024-02-15T14:48:23;7.03;;;1.70;;
38085;SDS011;23896;50.678;10.924;2024-02-15T14:50:50;3.65;;;1.55;;
38085;SDS011;23896;50.678;10.924;2024-02-15T14:53:22;7.63;;;2.20;;
38085;SDS011;23896;50.678;10.924;2024-02-15T14:55:49;2.95;;;1.42;;
38085;SDS011;23896;50.678;10.924;2024-02-15T14:58:20;6.50;;;2.00;;
38085;SDS011;23896;50.678;10.924;2024-02-15T15:00:48;2.78;;;1.77;;
38085;SDS011;23896;50.678;10.924;2024-02-15T15:03:16;4.63;;;1.48;;
38085;SDS011;23896;50.678;10.924;2024-02-15T15:05:43;2.22;;;1.30;;
38085;SDS011;23896;50.678;10.924;2024-02-15T15:08:30;2.75;;;1.70;;
38085;SDS011;23896;50.678;10.924;2024-02-15T15:11:11;12.10;;;3.10;;
38085;SDS011;23896;50.678;10.924;2024-02-15T15:13:51;3.28;;;1.95;;
38085;SDS011;23896;50.678;10.924;2024-02-15T15:16:19;9.30;;;5.18;;
38085;SDS011;23896;50.678;10.924;2024-02-15T15:18:48;3.60;;;2.33;;
38085;SDS011;23896;50.678;10.924;2024-02-15T15:21:16;4.45;;;1.83;;
38085;SDS011;23896;50.678;10.924;2024-02-15T15:23:45;13.70;;;3.72;;
38085;SDS011;23896;50.678;10.924;2024-02-15T15:26:18;3.45;;;1.40;;
38085;SDS011;23896;50.678;10.924;2024-02-15T15:28:46;3.53;;;1.70;;
38085;SDS011;23896;50.678;10.924;2024-02-15T15:31:21;3.35;;;1.75;;
38085;SDS011;23896;50.678;10.924;2024-02-15T15:33:48;2.90;;;1.45;;
38085;SDS011;23896;50.678;10.924;2024-02-15T15:36:18;1.75;;;1.33;;
38085;SDS011;23896;50.678;10.924;2024-02-15T15:38:47;3.03;;;1.50;;
38085;SDS011;23896;50.678;10.924;2024-02-15T15:41:14;2.00;;;1.27;;
38085;SDS011;23896;50.678;10.924;2024-02-15T15:43:44;3.03;;;1.70;;
38085;SDS011;23896;50.678;10.924;2024-02-15T15:46:12;3.90;;;1.58;;
38085;SDS011;23896;50.678;10.924;2024-02-15T15:48:40;3.78;;;1.60;;
38085;SDS011;23896;50.678;10.924;2024-02-15T15:51:10;2.75;;;1.55;;
38085;SDS011;23896;50.678;10.924;2024-02-15T15:53:38;2.25;;;1.63;;
38085;SDS011;23896;50.678;10.924;2024-02-15T15:56:08;1.52;;;1.42;;
38085;SDS011;23896;50.678;10.924;2024-02-15T15:58:36;4.82;;;1.58;;
38085;SDS011;23896;50.678;10.924;2024-02-15T16:01:05;3.22;;;1.60;;
38085;SDS011;23896;50.678;10.924;2024-02-15T16:03:40;3.03;;;1.90;;
38085;SDS011;23896;50.678;10.924;2024-02-15T16:08:42;3.35;;;2.38;;
38085;SDS011;23896;50.678;10.924;2024-02-15T16:11:15;5.28;;;1.45;;
38085;SDS011;23896;50.678;10.924;2024-02-15T16:13:42;3.38;;;1.58;;
38085;SDS011;23896;50.678;10.924;2024-02-15T16:16:17;4.60;;;1.75;;
38085;SDS011;23896;50.678;10.924;2024-02-15T16:18:50;2.85;;;1.45;;
38085;SDS011;23896;50.678;10.924;2024-02-15T16:21:20;5.47;;;1.80;;